Time;durP1;ratioP1;P1;durP2;ratioP2;P2;SDS_P1;SDS_P2;PMS_P1;PMS_P2;Temp;Humidity;BMP_temperature;BMP_pressure;BME280_temperature;BME280_humidity;BME280_pressure;Samples;Min_cycle;Max_cycle;Signal;HPM_P1;HPM_P2
2022/01/20 00:01:59;;;;;;;16.67;1.30;;;;;;;;;;5030667;28;20551;-62
2022/01/20 00:04:50;;;;;;;13.40;0.68;;;;;;;;;;5030651;28;20079;-63
2022/01/20 00:07:32;;;;;;;15.10;0.85;;;;;;;;;;5030111;28;20124;-63
2022/01/20 00:26:15;;;;;;;19.92;1.10;;;;;;;;;;5029869;28;20573;-62
2022/01/20 00:28:44;;;;;;;16.02;0.82;;;;;;;;;;5012865;28;20407;-62
2022/01/20 00:34:19;;;;;;;16.00;1.10;;;;;;;;;;5012126;28;20049;-62
2022/01/20 00:39:28;;;;;;;19.30;1.30;;;;;;;;;;5030411;28;20096;-62
2022/01/20 00:41:55;;;;;;;18.77;1.33;;;;;;;;;;5012457;28;20045;-62
2022/01/20 00:44:21;;;;;;;23.40;1.35;;;;;;;;;;5012125;28;20416;-62
2022/01/20 00:46:47;;;;;;;19.83;1.63;;;;;;;;;;4995979;28;20049;-63
2022/01/20 00:49:14;;;;;;;19.17;1.42;;;;;;;;;;5012034;28;20033;-63
2022/01/20 00:51:40;;;;;;;20.58;1.65;;;;;;;;;;5011621;28;20535;-63
2022/01/20 00:54:06;;;;;;;22.85;1.30;;;;;;;;;;5012216;28;20041;-63
2022/01/20 00:56:32;;;;;;;24.88;1.80;;;;;;;;;;5012228;28;20041;-62
2022/01/20 00:58:58;;;;;;;21.13;1.65;;;;;;;;;;5030066;28;20048;-62
2022/01/20 01:01:25;;;;;;;16.67;0.80;;;;;;;;;;5028315;28;20045;-62
2022/01/20 01:03:51;;;;;;;22.63;1.83;;;;;;;;;;5012338;28;20120;-62
2022/01/20 01:08:46;;;;;;;10.40;0.80;;;;;;;;;;5029461;28;20049;-62
2022/01/20 01:11:12;;;;;;;5.60;0.30;;;;;;;;;;5029783;28;20070;-62
2022/01/20 01:13:39;;;;;;;5.88;0.40;;;;;;;;;;5029482;28;20568;-64
2022/01/20 01:16:08;;;;;;;6.10;0.52;;;;;;;;;;5010519;28;20153;-63
2022/01/20 01:21:40;;;;;;;7.40;0.30;;;;;;;;;;5044851;28;20107;-62
2022/01/20 01:24:06;;;;;;;8.05;0.35;;;;;;;;;;5011418;28;20091;-63
2022/01/20 01:26:32;;;;;;;7.85;0.60;;;;;;;;;;5029440;28;20168;-63
2022/01/20 01:29:00;;;;;;;6.53;0.30;;;;;;;;;;5042845;28;20041;-61
2022/01/20 01:31:36;;;;;;;12.50;0.55;;;;;;;;;;5029831;28;20037;-62
2022/01/20 01:34:10;;;;;;;11.25;0.52;;;;;;;;;;5029969;28;20120;-61
2022/01/20 01:39:15;;;;;;;14.73;0.88;;;;;;;;;;5011647;28;20072;-63
2022/01/20 01:41:41;;;;;;;13.95;0.60;;;;;;;;;;5011713;28;20373;-62
2022/01/20 01:44:08;;;;;;;14.23;0.98;;;;;;;;;;5010611;28;20068;-63
2022/01/20 01:46:35;;;;;;;18.52;1.50;;;;;;;;;;5011720;28;20049;-62
2022/01/20 01:49:01;;;;;;;18.27;1.48;;;;;;;;;;5028720;28;20044;-64
2022/01/20 01:51:27;;;;;;;19.40;2.03;;;;;;;;;;4978980;28;20041;-63
2022/01/20 01:53:54;;;;;;;21.10;2.05;;;;;;;;;;4994401;28;20562;-63
2022/01/20 01:56:20;;;;;;;25.98;1.75;;;;;;;;;;5011418;28;20041;-62
2022/01/20 01:58:46;;;;;;;15.18;1.00;;;;;;;;;;5011459;28;20042;-62
2022/01/20 02:01:12;;;;;;;11.18;0.80;;;;;;;;;;5029190;28;20033;-62
2022/01/20 02:03:45;;;;;;;12.63;0.55;;;;;;;;;;5028057;28;20391;-62
2022/01/20 02:19:44;;;;;;;19.75;2.17;;;;;;;;;;5010662;28;20045;-63
2022/01/20 02:22:10;;;;;;;21.70;2.72;;;;;;;;;;5010463;28;20041;-62
2022/01/20 02:24:36;;;;;;;21.73;2.15;;;;;;;;;;5010381;28;20481;-62
2022/01/20 02:27:02;;;;;;;26.92;2.78;;;;;;;;;;5028548;28;20509;-63
2022/01/20 02:29:31;;;;;;;26.23;2.35;;;;;;;;;;5028638;28;20025;-62
2022/01/20 02:31:59;;;;;;;25.88;2.80;;;;;;;;;;4994492;28;20041;-63
2022/01/20 02:34:28;;;;;;;26.80;2.58;;;;;;;;;;5009969;28;20056;-63
2022/01/20 02:36:54;;;;;;;21.23;2.80;;;;;;;;;;5028334;28;20372;-63
2022/01/20 02:45:13;;;;;;;26.58;2.85;;;;;;;;;;5010330;28;20056;-63
2022/01/20 02:47:21;;;;;;;29.98;2.50;;;;;;;;;;5004701;28;20053;-63
2022/01/20 02:49:48;;;;;;;38.58;4.55;;;;;;;;;;5010473;28;20045;-63
2022/01/20 02:52:14;;;;;;;34.92;3.38;;;;;;;;;;5027988;28;20044;-63
2022/01/20 02:54:41;;;;;;;33.33;4.07;;;;;;;;;;5010140;28;20116;-62
2022/01/20 02:57:07;;;;;;;40.35;4.75;;;;;;;;;;4993832;28;20041;-63
2022/01/20 02:59:36;;;;;;;48.20;5.93;;;;;;;;;;5010519;28;20048;-63
2022/01/20 03:02:04;;;;;;;24.90;3.72;;;;;;;;;;5010018;28;20038;-64
2022/01/20 03:04:33;;;;;;;33.70;4.32;;;;;;;;;;5010072;28;20528;-63
2022/01/20 03:06:59;;;;;;;30.15;3.38;;;;;;;;;;5028425;28;20120;-62
2022/01/20 03:09:26;;;;;;;20.15;2.47;;;;;;;;;;5010529;28;20056;-61
2022/01/20 03:11:52;;;;;;;21.58;3.30;;;;;;;;;;5027739;28;20046;-61
2022/01/20 03:14:18;;;;;;;27.85;3.38;;;;;;;;;;5027905;28;20068;-62
2022/01/20 03:16:45;;;;;;;21.70;2.50;;;;;;;;;;5010358;28;20121;-63
2022/01/20 03:19:12;;;;;;;18.27;2.17;;;;;;;;;;4993577;28;20435;-63
2022/01/20 03:21:38;;;;;;;20.40;3.08;;;;;;;;;;5008933;28;20046;-63
2022/01/20 03:24:05;;;;;;;23.35;2.80;;;;;;;;;;5009402;28;20033;-63
2022/01/20 03:26:31;;;;;;;26.08;2.75;;;;;;;;;;5024847;28;20122;-63
2022/01/20 03:28:58;;;;;;;27.27;3.00;;;;;;;;;;4993371;28;20658;-62
2022/01/20 03:31:24;;;;;;;21.85;2.63;;;;;;;;;;5009158;28;20098;-63
2022/01/20 03:33:51;;;;;;;14.48;2.88;;;;;;;;;;4993025;28;20124;-64
2022/01/20 03:36:17;;;;;;;18.95;2.50;;;;;;;;;;4992636;28;20029;-64
2022/01/20 03:38:43;;;;;;;18.15;2.15;;;;;;;;;;5024909;28;20049;-63
2022/01/20 03:41:09;;;;;;;19.95;1.98;;;;;;;;;;5009519;28;20044;-63
2022/01/20 03:43:36;;;;;;;13.77;1.63;;;;;;;;;;4993619;28;20041;-63
2022/01/20 03:46:05;;;;;;;13.73;1.70;;;;;;;;;;5026946;28;20029;-66
2022/01/20 03:48:38;;;;;;;14.23;1.75;;;;;;;;;;5026577;28;20365;-63
2022/01/20 03:51:04;;;;;;;18.08;1.95;;;;;;;;;;5025455;28;20451;-63
2022/01/20 03:53:36;;;;;;;17.48;2.03;;;;;;;;;;5027695;28;20047;-63
2022/01/20 03:56:03;;;;;;;19.23;2.50;;;;;;;;;;5009176;28;20687;-63
2022/01/20 03:58:29;;;;;;;16.55;2.13;;;;;;;;;;5027621;28;20045;-62
2022/01/20 04:00:55;;;;;;;21.00;2.58;;;;;;;;;;5025463;28;20072;-63
2022/01/20 04:03:22;;;;;;;23.27;3.42;;;;;;;;;;5025846;28;20480;-64
2022/01/20 04:05:56;;;;;;;29.08;3.33;;;;;;;;;;5009359;28;20072;-63
2022/01/20 04:08:24;;;;;;;19.25;2.10;;;;;;;;;;4992931;28;20075;-63
2022/01/20 04:10:50;;;;;;;24.20;3.13;;;;;;;;;;5009904;28;20483;-64
2022/01/20 04:13:18;;;;;;;25.63;3.25;;;;;;;;;;5008888;28;20046;-64
2022/01/20 04:15:44;;;;;;;17.90;2.40;;;;;;;;;;5008591;28;20123;-63
2022/01/20 04:18:13;;;;;;;25.65;2.90;;;;;;;;;;5026853;28;20048;-63
2022/01/20 04:20:40;;;;;;;14.25;2.10;;;;;;;;;;5008925;28;20361;-63
2022/01/20 04:23:06;;;;;;;20.08;3.00;;;;;;;;;;5009581;28;20558;-63
2022/01/20 04:25:32;;;;;;;20.52;2.72;;;;;;;;;;5027617;28;20048;-63
2022/01/20 04:27:58;;;;;;;26.70;3.20;;;;;;;;;;5045507;28;20077;-63
2022/01/20 04:30:24;;;;;;;20.55;2.35;;;;;;;;;;5030862;28;20400;-63
2022/01/20 04:32:50;;;;;;;21.23;2.60;;;;;;;;;;5013122;28;20041;-63
2022/01/20 04:35:19;;;;;;;26.25;3.22;;;;;;;;;;5030071;28;20044;-61
2022/01/20 04:37:47;;;;;;;25.85;2.67;;;;;;;;;;5012338;28;20049;-62
2022/01/20 04:40:14;;;;;;;17.88;2.15;;;;;;;;;;5012266;28;20052;-62
2022/01/20 04:42:42;;;;;;;13.80;1.40;;;;;;;;;;5012036;28;20041;-62
2022/01/20 04:45:12;;;;;;;14.57;1.27;;;;;;;;;;5010139;28;20053;-62
2022/01/20 04:58:19;;;;;;;13.90;1.40;;;;;;;;;;5029438;28;20045;-62
2022/01/20 05:00:45;;;;;;;24.60;3.42;;;;;;;;;;5045634;28;20080;-61
2022/01/20 05:03:11;;;;;;;27.73;3.13;;;;;;;;;;5011874;28;20426;-63
2022/01/20 05:05:37;;;;;;;24.10;2.75;;;;;;;;;;5011769;28;20507;-62
2022/01/20 05:08:03;;;;;;;22.83;2.25;;;;;;;;;;5011336;28;20068;-62
2022/01/20 05:10:33;;;;;;;21.60;2.35;;;;;;;;;;5009988;28;20116;-62
2022/01/20 05:15:25;;;;;;;26.30;2.72;;;;;;;;;;5030011;28;20495;-61
2022/01/20 05:17:53;;;;;;;18.40;2.20;;;;;;;;;;5012380;28;20046;-60
2022/01/20 05:20:19;;;;;;;24.27;2.70;;;;;;;;;;5012566;28;20049;-62
2022/01/20 05:22:45;;;;;;;26.23;2.70;;;;;;;;;;5012195;28;20043;-61
2022/01/20 05:25:12;;;;;;;31.27;4.03;;;;;;;;;;5029991;28;20041;-62
2022/01/20 05:27:38;;;;;;;26.27;2.75;;;;;;;;;;5011592;28;20037;-63
2022/01/20 05:30:04;;;;;;;24.88;2.28;;;;;;;;;;5011584;28;20075;-63
2022/01/20 05:32:31;;;;;;;18.50;2.30;;;;;;;;;;5010144;28;20075;-61
2022/01/20 05:34:57;;;;;;;20.83;2.35;;;;;;;;;;5029153;28;20042;-63
2022/01/20 05:37:23;;;;;;;19.42;1.75;;;;;;;;;;5010849;28;20976;-62
2022/01/20 05:39:49;;;;;;;19.40;1.88;;;;;;;;;;5029071;28;20483;-62
2022/01/20 05:42:15;;;;;;;20.83;2.58;;;;;;;;;;5028697;28;20046;-62
2022/01/20 05:44:42;;;;;;;15.95;2.17;;;;;;;;;;5042727;28;20061;-63
2022/01/20 05:47:12;;;;;;;20.08;1.92;;;;;;;;;;5011268;28;20114;-63
2022/01/20 05:49:38;;;;;;;19.45;2.17;;;;;;;;;;5011230;28;20569;-62
2022/01/20 05:52:05;;;;;;;16.27;1.85;;;;;;;;;;5010687;28;20471;-63
2022/01/20 05:54:31;;;;;;;23.23;1.83;;;;;;;;;;5010783;28;20068;-63
2022/01/20 05:56:57;;;;;;;20.08;1.92;;;;;;;;;;5028916;28;20073;-64
2022/01/20 05:59:23;;;;;;;25.08;2.47;;;;;;;;;;5010941;28;20038;-63
2022/01/20 06:01:58;;;;;;;28.38;3.00;;;;;;;;;;5011159;28;20029;-63
2022/01/20 06:04:24;;;;;;;26.60;2.67;;;;;;;;;;5011011;28;20040;-62
2022/01/20 06:06:50;;;;;;;18.67;2.88;;;;;;;;;;5027325;28;20073;-63
2022/01/20 06:09:16;;;;;;;19.95;2.30;;;;;;;;;;5010874;28;20053;-62
2022/01/20 06:11:42;;;;;;;17.27;2.13;;;;;;;;;;5026695;28;20132;-63
2022/01/20 06:14:08;;;;;;;17.92;2.45;;;;;;;;;;5028115;28;20029;-62
2022/01/20 06:16:37;;;;;;;22.15;1.90;;;;;;;;;;5027935;28;20484;-62
2022/01/20 06:19:03;;;;;;;18.75;2.28;;;;;;;;;;5010239;28;20053;-62
2022/01/20 06:21:29;;;;;;;18.73;2.47;;;;;;;;;;5027894;28;20427;-62
2022/01/20 06:23:55;;;;;;;23.45;3.45;;;;;;;;;;5027854;28;20285;-62
2022/01/20 06:26:21;;;;;;;23.25;2.30;;;;;;;;;;5027978;28;20104;-63
2022/01/20 06:28:47;;;;;;;21.20;3.10;;;;;;;;;;5010540;28;20037;-62
2022/01/20 06:31:13;;;;;;;21.85;2.70;;;;;;;;;;5010526;28;20407;-62
2022/01/20 06:33:40;;;;;;;25.20;2.97;;;;;;;;;;5010505;28;20124;-62
2022/01/20 06:36:06;;;;;;;26.70;3.00;;;;;;;;;;5027597;28;20041;-62
2022/01/20 06:38:32;;;;;;;26.73;3.08;;;;;;;;;;5009913;28;20507;-61
2022/01/20 06:40:58;;;;;;;27.58;3.58;;;;;;;;;;5009596;28;20033;-63
2022/01/20 06:43:24;;;;;;;26.80;2.83;;;;;;;;;;4993387;28;20056;-64
2022/01/20 06:45:51;;;;;;;22.95;2.75;;;;;;;;;;5009578;28;20068;-61
2022/01/20 06:48:17;;;;;;;24.63;2.60;;;;;;;;;;5023729;28;20507;-62
2022/01/20 06:50:43;;;;;;;19.85;2.05;;;;;;;;;;5011120;28;20510;-62
2022/01/20 06:53:09;;;;;;;22.42;2.63;;;;;;;;;;5008664;28;20057;-63
2022/01/20 06:55:35;;;;;;;7.07;0.77;;;;;;;;;;5008592;28;20431;-63
2022/01/20 06:58:01;;;;;;;7.05;0.63;;;;;;;;;;5008508;28;20064;-63
2022/01/20 07:00:27;;;;;;;10.50;0.90;;;;;;;;;;4993559;28;20289;-62
2022/01/20 07:02:54;;;;;;;12.00;0.82;;;;;;;;;;5009849;28;20041;-62
2022/01/20 07:05:21;;;;;;;13.52;1.00;;;;;;;;;;5028420;28;20068;-62
2022/01/20 07:07:47;;;;;;;16.20;1.77;;;;;;;;;;5010337;28;20571;-63
2022/01/20 07:10:15;;;;;;;11.93;1.23;;;;;;;;;;5009360;28;20038;-63
2022/01/20 07:12:42;;;;;;;15.43;1.58;;;;;;;;;;4993190;28;20053;-61
2022/01/20 07:15:08;;;;;;;14.23;1.73;;;;;;;;;;5009814;28;20140;-61
2022/01/20 07:17:34;;;;;;;24.20;1.80;;;;;;;;;;5027798;28;20053;-61
2022/01/20 07:20:00;;;;;;;22.27;1.90;;;;;;;;;;5009994;28;20037;-61
2022/01/20 07:22:27;;;;;;;22.60;1.98;;;;;;;;;;4978070;28;20454;-62
2022/01/20 07:24:53;;;;;;;21.02;1.63;;;;;;;;;;5026139;28;20041;-63
2022/01/20 07:27:19;;;;;;;19.80;2.38;;;;;;;;;;5042158;28;20041;-63
2022/01/20 07:29:45;;;;;;;22.17;2.20;;;;;;;;;;5008960;28;20073;-62
2022/01/20 07:32:11;;;;;;;25.33;3.25;;;;;;;;;;5009116;28;20407;-62
2022/01/20 07:34:37;;;;;;;30.20;3.33;;;;;;;;;;5008648;28;20038;-62
2022/01/20 07:37:05;;;;;;;24.17;3.33;;;;;;;;;;5009061;28;20080;-62
2022/01/20 07:39:31;;;;;;;33.22;4.05;;;;;;;;;;4993218;28;20125;-62
2022/01/20 07:41:57;;;;;;;22.85;2.45;;;;;;;;;;5009219;28;20084;-61
2022/01/20 07:44:23;;;;;;;23.17;3.05;;;;;;;;;;5009559;28;20076;-62
2022/01/20 07:46:49;;;;;;;20.42;1.83;;;;;;;;;;5027268;28;20037;-62
2022/01/20 07:49:16;;;;;;;26.77;3.70;;;;;;;;;;5009039;28;20090;-62
2022/01/20 07:51:43;;;;;;;23.65;2.47;;;;;;;;;;5010137;28;20124;-62
2022/01/20 07:54:10;;;;;;;21.55;2.72;;;;;;;;;;5010284;28;20053;-62
2022/01/20 07:56:36;;;;;;;20.08;2.70;;;;;;;;;;5043133;28;20046;-62
2022/01/20 07:59:06;;;;;;;29.80;2.67;;;;;;;;;;5009869;28;20121;-62
2022/01/20 08:01:32;;;;;;;19.90;2.05;;;;;;;;;;5012503;28;20107;-60
2022/01/20 08:03:58;;;;;;;28.80;2.65;;;;;;;;;;5031684;28;20072;-61
2022/01/20 08:06:24;;;;;;;26.23;2.83;;;;;;;;;;5032316;28;20128;-60
2022/01/20 08:08:51;;;;;;;20.50;2.33;;;;;;;;;;5013812;28;20084;-60
2022/01/20 08:11:22;;;;;;;31.60;2.97;;;;;;;;;;5014711;28;20630;-61
2022/01/20 08:13:48;;;;;;;19.83;2.05;;;;;;;;;;5046813;28;20053;-62
2022/01/20 08:16:14;;;;;;;23.00;3.22;;;;;;;;;;5031294;28;20085;-60
2022/01/20 08:18:40;;;;;;;26.75;2.90;;;;;;;;;;5030077;28;20483;-60
2022/01/20 08:21:06;;;;;;;24.75;2.83;;;;;;;;;;5030674;28;20112;-60
2022/01/20 08:23:33;;;;;;;26.38;2.90;;;;;;;;;;5012583;28;20487;-61
2022/01/20 08:25:59;;;;;;;21.48;2.22;;;;;;;;;;5029601;28;20029;-61
2022/01/20 08:28:25;;;;;;;26.58;2.67;;;;;;;;;;5012324;28;20816;-61
2022/01/20 08:30:52;;;;;;;21.35;2.95;;;;;;;;;;5029666;28;20034;-61
2022/01/20 08:33:18;;;;;;;23.33;2.45;;;;;;;;;;4996707;28;20554;-60
2022/01/20 08:35:44;;;;;;;18.15;2.17;;;;;;;;;;5011970;28;20037;-61
2022/01/20 08:38:11;;;;;;;16.38;2.10;;;;;;;;;;5011848;28;20415;-62
2022/01/20 08:40:37;;;;;;;19.90;1.92;;;;;;;;;;5029716;28;20041;-62
2022/01/20 08:43:03;;;;;;;21.05;1.60;;;;;;;;;;5012921;28;20052;-62
2022/01/20 08:45:31;;;;;;;19.60;2.55;;;;;;;;;;5030420;28;20033;-62
2022/01/20 08:47:59;;;;;;;18.77;2.10;;;;;;;;;;5012241;28;20042;-62
2022/01/20 08:50:27;;;;;;;18.45;2.40;;;;;;;;;;5030272;28;20072;-61
2022/01/20 08:52:53;;;;;;;21.33;2.20;;;;;;;;;;5012943;28;20048;-62
2022/01/20 08:55:20;;;;;;;24.15;2.30;;;;;;;;;;5012612;28;20037;-62
2022/01/20 08:57:46;;;;;;;18.73;1.98;;;;;;;;;;5013221;28;20467;-61
2022/01/20 09:00:13;;;;;;;18.63;2.53;;;;;;;;;;5017345;28;20041;-60
2022/01/20 09:02:39;;;;;;;19.60;1.90;;;;;;;;;;5013075;28;20044;-61
2022/01/20 09:05:06;;;;;;;18.73;2.60;;;;;;;;;;5013041;28;20052;-62
2022/01/20 09:07:32;;;;;;;17.67;1.98;;;;;;;;;;5012449;28;20052;-63
2022/01/20 09:10:00;;;;;;;17.33;2.17;;;;;;;;;;5011496;28;20049;-63
2022/01/20 09:17:44;;;;;;;19.85;1.80;;;;;;;;;;5045135;28;20425;-62
2022/01/20 09:20:10;;;;;;;15.70;1.90;;;;;;;;;;5011762;28;20041;-62
2022/01/20 09:22:37;;;;;;;17.42;1.85;;;;;;;;;;5013421;28;20037;-61
2022/01/20 09:25:04;;;;;;;21.52;2.08;;;;;;;;;;4996356;28;20056;-62
2022/01/20 09:27:30;;;;;;;19.73;1.98;;;;;;;;;;5030366;28;20048;-62
2022/01/20 09:29:56;;;;;;;22.83;2.67;;;;;;;;;;5017664;28;20132;-62
2022/01/20 09:32:25;;;;;;;24.55;3.50;;;;;;;;;;5009002;28;20030;-62
2022/01/20 09:34:51;;;;;;;22.00;1.92;;;;;;;;;;5009955;28;20423;-62
2022/01/20 09:37:17;;;;;;;17.20;1.58;;;;;;;;;;5011155;28;20045;-62
2022/01/20 09:39:44;;;;;;;12.90;0.80;;;;;;;;;;5010520;28;20092;-62
2022/01/20 09:42:10;;;;;;;10.90;0.80;;;;;;;;;;5009998;28;20060;-62
2022/01/20 09:44:36;;;;;;;11.20;0.80;;;;;;;;;;5009308;28;20041;-63
2022/01/20 09:47:03;;;;;;;10.55;1.13;;;;;;;;;;5008901;28;20046;-63
2022/01/20 09:49:29;;;;;;;16.80;2.03;;;;;;;;;;5009632;28;20432;-62
2022/01/20 09:51:58;;;;;;;10.70;0.98;;;;;;;;;;5025361;28;20148;-63
2022/01/20 09:54:24;;;;;;;10.98;1.45;;;;;;;;;;5025574;28;20435;-61
2022/01/20 09:56:50;;;;;;;15.40;1.45;;;;;;;;;;5010456;28;20403;-61
2022/01/20 09:59:16;;;;;;;17.83;1.67;;;;;;;;;;5009972;28;20034;-62
2022/01/20 10:01:44;;;;;;;14.48;1.42;;;;;;;;;;5010339;28;20049;-61
2022/01/20 10:04:19;;;;;;;11.85;1.05;;;;;;;;;;5008924;28;20038;-60
2022/01/20 10:07:13;;;;;;;18.95;1.80;;;;;;;;;;5009582;28;20499;-62
2022/01/20 10:09:41;;;;;;;18.92;1.67;;;;;;;;;;5005230;28;20062;-63
2022/01/20 10:12:09;;;;;;;15.25;1.95;;;;;;;;;;5009728;28;20049;-62
2022/01/20 10:14:44;;;;;;;21.38;2.33;;;;;;;;;;5007739;28;20054;-62
2022/01/20 10:17:14;;;;;;;20.08;2.45;;;;;;;;;;5007666;28;20049;-62
2022/01/20 10:19:41;;;;;;;16.33;2.20;;;;;;;;;;5024794;28;20108;-62
2022/01/20 10:22:12;;;;;;;21.20;2.47;;;;;;;;;;4992204;28;20963;-62
2022/01/20 10:24:38;;;;;;;17.02;1.65;;;;;;;;;;5007688;28;20058;-62
2022/01/20 10:27:08;;;;;;;20.20;2.28;;;;;;;;;;5040817;28;20504;-62
2022/01/20 10:29:35;;;;;;;15.38;1.92;;;;;;;;;;5040343;28;20054;-63
2022/01/20 10:32:01;;;;;;;13.10;2.05;;;;;;;;;;5040887;28;20056;-62
2022/01/20 10:34:35;;;;;;;19.38;2.17;;;;;;;;;;5024335;28;20100;-61
2022/01/20 10:37:07;;;;;;;23.38;2.88;;;;;;;;;;5041569;28;20060;-62
2022/01/20 10:39:34;;;;;;;15.02;1.67;;;;;;;;;;5009473;28;20743;-62
2022/01/20 10:42:04;;;;;;;12.05;2.25;;;;;;;;;;5008132;28;20038;-63
2022/01/20 10:44:40;;;;;;;14.88;1.42;;;;;;;;;;5039540;28;20045;-62
2022/01/20 10:47:11;;;;;;;14.23;1.42;;;;;;;;;;5024408;28;20308;-61
2022/01/20 10:49:37;;;;;;;9.50;1.00;;;;;;;;;;5040135;28;20095;-62
2022/01/20 10:52:06;;;;;;;9.82;1.05;;;;;;;;;;5007645;28;20046;-62
2022/01/20 10:54:40;;;;;;;17.40;1.05;;;;;;;;;;5007852;28;20103;-62
2022/01/20 10:57:07;;;;;;;7.90;0.43;;;;;;;;;;5009115;28;20049;-62
2022/01/20 10:59:34;;;;;;;9.10;0.93;;;;;;;;;;5008918;28;20559;-62
2022/01/20 11:02:05;;;;;;;11.73;1.40;;;;;;;;;;5008237;28;20042;-62
2022/01/20 11:04:31;;;;;;;13.30;1.75;;;;;;;;;;5007534;28;20081;-62
2022/01/20 11:07:01;;;;;;;17.67;1.48;;;;;;;;;;5007640;28;20088;-63
2022/01/20 11:09:28;;;;;;;12.52;1.25;;;;;;;;;;5006667;28;20050;-62
2022/01/20 11:11:56;;;;;;;15.30;1.15;;;;;;;;;;5008442;28;20034;-62
2022/01/20 11:14:22;;;;;;;13.88;1.45;;;;;;;;;;5007007;28;20050;-62
2022/01/20 11:16:48;;;;;;;12.45;1.30;;;;;;;;;;5008528;28;20054;-62
2022/01/20 11:19:16;;;;;;;12.15;1.50;;;;;;;;;;5040268;28;20054;-62
2022/01/20 11:21:43;;;;;;;11.35;1.35;;;;;;;;;;5007825;28;20042;-62
2022/01/20 11:24:36;;;;;;;16.58;1.70;;;;;;;;;;5008337;28;20436;-61
2022/01/20 11:27:03;;;;;;;17.52;2.30;;;;;;;;;;5005638;28;20050;-63
2022/01/20 11:29:43;;;;;;;13.55;1.92;;;;;;;;;;5007232;28;20034;-62
2022/01/20 11:32:23;;;;;;;9.38;0.73;;;;;;;;;;5040603;28;20478;-61
2022/01/20 11:35:00;;;;;;;6.97;0.47;;;;;;;;;;5025861;28;20050;-60
2022/01/20 11:37:27;;;;;;;9.02;0.55;;;;;;;;;;5012736;28;20431;-62
2022/01/20 11:39:54;;;;;;;4.57;0.38;;;;;;;;;;5012267;28;20442;-62
2022/01/20 11:42:25;;;;;;;6.70;0.60;;;;;;;;;;5044745;28;20037;-62
2022/01/20 11:44:52;;;;;;;9.13;0.85;;;;;;;;;;5013076;28;20077;-61
2022/01/20 11:47:19;;;;;;;10.38;1.30;;;;;;;;;;5012310;28;20045;-61
2022/01/20 11:49:45;;;;;;;16.65;1.67;;;;;;;;;;5045078;28;20049;-62
2022/01/20 11:52:23;;;;;;;22.58;2.30;;;;;;;;;;5044173;28;21712;-63
2022/01/20 11:54:49;;;;;;;15.50;1.70;;;;;;;;;;5012045;28;20053;-61
2022/01/20 11:57:21;;;;;;;14.95;2.08;;;;;;;;;;5012931;28;20050;-61
2022/01/20 11:59:54;;;;;;;19.77;2.30;;;;;;;;;;5045193;28;20059;-61
2022/01/20 12:02:32;;;;;;;21.08;2.42;;;;;;;;;;5011871;28;20484;-61
2022/01/20 12:04:59;;;;;;;20.08;2.60;;;;;;;;;;5011549;28;20121;-61
2022/01/20 12:07:26;;;;;;;16.10;2.28;;;;;;;;;;5013046;28;20627;-61
2022/01/20 12:10:03;;;;;;;16.70;2.13;;;;;;;;;;4994634;28;20056;-62
2022/01/20 12:12:29;;;;;;;19.83;2.78;;;;;;;;;;5013209;28;20088;-61
2022/01/20 12:15:06;;;;;;;22.90;2.70;;;;;;;;;;4993661;28;20046;-64
2022/01/20 12:17:32;;;;;;;25.83;2.67;;;;;;;;;;5010516;28;20609;-63
2022/01/20 12:19:58;;;;;;;17.85;1.88;;;;;;;;;;5010095;28;20289;-63
2022/01/20 12:22:24;;;;;;;17.65;2.15;;;;;;;;;;5027453;28;20406;-61
2022/01/20 12:24:55;;;;;;;18.30;2.33;;;;;;;;;;5027338;28;20099;-62
2022/01/20 12:27:22;;;;;;;24.70;2.65;;;;;;;;;;5010572;28;20042;-61
2022/01/20 12:29:49;;;;;;;19.63;2.13;;;;;;;;;;5012237;28;20048;-63
2022/01/20 12:32:16;;;;;;;19.45;2.80;;;;;;;;;;5010815;28;20042;-63
2022/01/20 12:34:42;;;;;;;18.15;2.10;;;;;;;;;;5009905;28;20045;-62
2022/01/20 12:37:09;;;;;;;22.70;3.28;;;;;;;;;;5010742;28;20042;-62
2022/01/20 12:39:41;;;;;;;29.48;3.45;;;;;;;;;;5011506;28;20061;-63
2022/01/20 12:42:08;;;;;;;18.98;2.80;;;;;;;;;;5043306;28;20034;-63
2022/01/20 12:44:47;;;;;;;21.52;3.33;;;;;;;;;;4991583;28;20052;-63
2022/01/20 12:47:13;;;;;;;16.35;2.65;;;;;;;;;;5042567;28;20064;-63
2022/01/20 12:49:40;;;;;;;20.63;2.60;;;;;;;;;;5009749;28;20050;-62
2022/01/20 12:52:07;;;;;;;19.15;2.00;;;;;;;;;;5009974;28;20041;-63
2022/01/20 12:54:34;;;;;;;18.20;2.30;;;;;;;;;;5011727;28;20048;-62
2022/01/20 12:57:04;;;;;;;18.98;1.90;;;;;;;;;;5012142;28;20046;-61
2022/01/20 12:59:32;;;;;;;18.17;2.15;;;;;;;;;;5009809;28;20161;-60
2022/01/20 13:02:02;;;;;;;20.83;2.72;;;;;;;;;;5011630;28;20042;-62
2022/01/20 13:04:29;;;;;;;23.80;2.58;;;;;;;;;;5009708;28;20030;-62
2022/01/20 13:06:59;;;;;;;17.63;2.13;;;;;;;;;;5010130;28;20133;-61
2022/01/20 13:09:35;;;;;;;14.75;1.60;;;;;;;;;;5010994;28;20054;-62
2022/01/20 13:12:02;;;;;;;13.90;0.98;;;;;;;;;;5010755;28;20108;-62
2022/01/20 13:14:34;;;;;;;10.48;0.93;;;;;;;;;;4993088;28;20077;-61
2022/01/20 13:17:01;;;;;;;9.65;1.02;;;;;;;;;;5041937;28;20062;-60
2022/01/20 13:19:39;;;;;;;13.75;0.93;;;;;;;;;;5010301;28;20048;-61
2022/01/20 13:22:07;;;;;;;16.27;2.63;;;;;;;;;;5010411;28;20041;-61
2022/01/20 13:24:34;;;;;;;16.13;1.58;;;;;;;;;;5010206;28;20100;-62
2022/01/20 13:27:01;;;;;;;15.25;1.83;;;;;;;;;;5010644;28;20077;-63
2022/01/20 13:29:38;;;;;;;16.02;1.40;;;;;;;;;;5011142;28;20080;-61
2022/01/20 13:32:05;;;;;;;15.15;2.03;;;;;;;;;;5042772;28;20081;-59
2022/01/20 13:34:31;;;;;;;19.10;2.25;;;;;;;;;;5009412;28;20546;-60
2022/01/20 13:36:57;;;;;;;14.05;1.73;;;;;;;;;;5042935;28;20277;-60
2022/01/20 13:39:29;;;;;;;19.55;2.35;;;;;;;;;;5010083;28;20123;-61
2022/01/20 13:42:19;;;;;;;21.20;2.97;;;;;;;;;;5042423;28;20046;-62
2022/01/20 13:45:05;;;;;;;21.58;2.55;;;;;;;;;;5042389;28;20045;-61
2022/01/20 13:47:31;;;;;;;19.20;2.28;;;;;;;;;;5009885;28;20100;-63
2022/01/20 13:49:57;;;;;;;20.88;2.60;;;;;;;;;;5007314;28;20046;-62
2022/01/20 13:52:24;;;;;;;26.67;2.72;;;;;;;;;;5041515;28;20041;-62
2022/01/20 13:54:54;;;;;;;18.35;2.58;;;;;;;;;;5042054;28;20041;-61
2022/01/20 13:57:23;;;;;;;16.98;2.00;;;;;;;;;;5009786;28;20034;-62
2022/01/20 13:59:55;;;;;;;21.67;1.77;;;;;;;;;;5007488;28;20487;-62
2022/01/20 14:02:25;;;;;;;19.85;2.95;;;;;;;;;;5010204;28;20100;-60
2022/01/20 14:04:52;;;;;;;25.83;2.80;;;;;;;;;;5008852;28;20049;-61
2022/01/20 14:07:21;;;;;;;17.05;1.83;;;;;;;;;;5008890;28;20046;-61
2022/01/20 14:09:48;;;;;;;16.10;1.60;;;;;;;;;;5010721;28;20132;-62
2022/01/20 14:12:14;;;;;;;16.92;1.60;;;;;;;;;;5041410;28;20180;-62
2022/01/20 14:14:41;;;;;;;14.07;1.38;;;;;;;;;;5008155;28;20050;-61
2022/01/20 14:17:20;;;;;;;13.63;1.70;;;;;;;;;;5009796;28;20050;-62
2022/01/20 14:19:53;;;;;;;16.30;1.88;;;;;;;;;;5007833;28;20073;-62
2022/01/20 14:22:19;;;;;;;16.83;1.98;;;;;;;;;;5041167;28;20172;-62
2022/01/20 14:24:45;;;;;;;16.45;2.28;;;;;;;;;;5040848;28;20451;-62
2022/01/20 14:27:15;;;;;;;21.40;1.90;;;;;;;;;;5007152;28;20156;-63
2022/01/20 14:29:42;;;;;;;18.13;2.67;;;;;;;;;;4989331;28;20107;-62
2022/01/20 14:32:09;;;;;;;20.75;2.08;;;;;;;;;;5023278;28;20042;-62
2022/01/20 14:34:35;;;;;;;22.20;2.35;;;;;;;;;;5008547;28;20455;-62
2022/01/20 14:37:01;;;;;;;17.50;2.53;;;;;;;;;;5022854;28;20559;-62
2022/01/20 14:39:27;;;;;;;20.67;2.10;;;;;;;;;;5040002;28;20038;-62
2022/01/20 14:41:53;;;;;;;24.10;2.63;;;;;;;;;;5007951;28;21707;-62
2022/01/20 14:44:22;;;;;;;20.05;2.00;;;;;;;;;;5005881;28;20061;-62
2022/01/20 14:46:49;;;;;;;14.90;1.55;;;;;;;;;;5005292;28;20042;-62
2022/01/20 14:49:15;;;;;;;19.50;2.13;;;;;;;;;;5006975;28;20492;-62
2022/01/20 14:51:42;;;;;;;22.40;1.95;;;;;;;;;;5023312;28;20042;-62
2022/01/20 14:54:08;;;;;;;24.38;2.65;;;;;;;;;;5006447;28;20045;-61
2022/01/20 14:56:34;;;;;;;32.55;2.75;;;;;;;;;;5007595;28;20038;-61
2022/01/20 14:59:00;;;;;;;30.88;2.75;;;;;;;;;;5008006;28;20151;-61
2022/01/20 15:01:26;;;;;;;28.25;3.35;;;;;;;;;;5007939;28;20092;-61
2022/01/20 15:03:52;;;;;;;27.80;2.97;;;;;;;;;;5008199;28;20121;-60
2022/01/20 15:06:18;;;;;;;29.20;2.88;;;;;;;;;;5038521;28;20045;-60
2022/01/20 15:08:44;;;;;;;25.33;2.25;;;;;;;;;;5039875;28;20141;-61
2022/01/20 15:11:10;;;;;;;23.83;2.65;;;;;;;;;;5039649;28;20042;-61
2022/01/20 15:13:36;;;;;;;21.33;2.40;;;;;;;;;;5006562;28;20065;-61
2022/01/20 15:16:04;;;;;;;11.77;0.88;;;;;;;;;;4990433;28;20484;-61
2022/01/20 15:18:30;;;;;;;9.23;0.80;;;;;;;;;;5011313;28;20042;-61
2022/01/20 15:20:56;;;;;;;6.32;0.60;;;;;;;;;;5041101;28;20499;-61
2022/01/20 15:23:23;;;;;;;8.88;0.40;;;;;;;;;;5041340;28;20038;-60
2022/01/20 15:25:49;;;;;;;11.75;0.73;;;;;;;;;;5042179;28;20038;-61
2022/01/20 15:28:15;;;;;;;10.77;0.77;;;;;;;;;;5008067;28;20049;-63
2022/01/20 15:30:41;;;;;;;11.15;1.20;;;;;;;;;;4974909;28;20045;-62
2022/01/20 15:33:08;;;;;;;14.00;0.95;;;;;;;;;;5008569;28;20509;-61
2022/01/20 15:35:34;;;;;;;12.10;1.35;;;;;;;;;;5040862;28;20129;-62
2022/01/20 15:38:00;;;;;;;20.55;1.90;;;;;;;;;;5006337;28;20041;-62
2022/01/20 15:40:27;;;;;;;14.55;1.45;;;;;;;;;;5008580;28;20435;-62
2022/01/20 15:42:53;;;;;;;14.80;1.45;;;;;;;;;;5006875;28;20108;-62